Time;durP1;ratioP1;P1;durP2;ratioP2;P2;SDS_P1;SDS_P2;PMS_P1;PMS_P2;Temp;Humidity;BMP_temperature;BMP_pressure;BME280_temperature;BME280_humidity;BME280_pressure;Samples;Min_cycle;Max_cycle;Signal;HPM_P1;HPM_P2
2021/09/23 02:45:47;;;;;;;17.90;8.68;;;13.00;99.10;;;;;;5580569;24;20061;-80
2021/09/23 02:48:12;;;;;;;20.30;9.38;;;13.00;99.10;;;;;;4731954;30;20044;-81
2021/09/23 02:50:39;;;;;;;18.17;8.10;;;12.90;99.00;;;;;;4745750;30;20035;-81
2021/09/23 02:53:05;;;;;;;13.43;8.55;;;13.00;99.10;;;;;;4744629;30;20041;-80
2021/09/23 02:55:31;;;;;;;18.08;8.48;;;13.00;99.10;;;;;;4746034;30;20066;-81
2021/09/23 02:57:57;;;;;;;15.30;8.70;;;12.90;99.30;;;;;;4745657;30;20091;-81
2021/09/23 03:00:23;;;;;;;20.58;9.80;;;13.00;99.20;;;;;;4745861;30;20033;-81
2021/09/23 03:02:48;;;;;;;20.33;11.18;;;13.00;99.20;;;;;;4745977;30;20100;-80
2021/09/23 03:05:14;;;;;;;20.83;10.13;;;13.00;99.40;;;;;;4746154;30;20041;-80
2021/09/23 03:07:40;;;;;;;22.63;11.57;;;13.00;99.50;;;;;;4745821;30;20107;-80
2021/09/23 03:10:06;;;;;;;23.13;9.52;;;13.00;99.70;;;;;;4745877;30;20032;-80
2021/09/23 03:12:33;;;;;;;23.10;10.30;;;12.90;99.70;;;;;;4745814;30;20231;-81
2021/09/23 03:15:00;;;;;;;21.88;8.85;;;13.00;99.80;;;;;;4745951;30;20056;-81
2021/09/23 03:17:26;;;;;;;15.25;7.85;;;13.10;99.70;;;;;;4745681;30;20032;-80
2021/09/23 03:19:53;;;;;;;16.63;7.82;;;13.10;99.50;;;;;;4745697;30;20070;-80
2021/09/23 03:22:19;;;;;;;18.40;9.77;;;13.20;99.60;;;;;;4745494;30;20124;-80
2021/09/23 03:24:47;;;;;;;15.07;8.68;;;13.20;99.20;;;;;;4745342;30;20040;-80
2021/09/23 03:27:14;;;;;;;18.25;9.45;;;13.20;99.10;;;;;;4745412;30;20092;-80
2021/09/23 03:29:40;;;;;;;20.17;9.50;;;13.20;99.20;;;;;;4745356;30;20039;-80
2021/09/23 03:32:06;;;;;;;22.20;9.40;;;13.20;99.20;;;;;;4744584;30;20112;-81
2021/09/23 03:34:32;;;;;;;16.65;9.10;;;13.20;99.10;;;;;;4744975;30;20036;-81
2021/09/23 03:36:58;;;;;;;17.58;8.95;;;13.20;99.00;;;;;;4746196;30;20231;-80
2021/09/23 03:39:24;;;;;;;20.58;9.65;;;13.10;98.80;;;;;;4745228;30;20028;-80
2021/09/23 03:41:50;;;;;;;18.23;9.85;;;13.00;98.90;;;;;;4747517;30;20320;-81
2021/09/23 03:44:16;;;;;;;26.25;9.68;;;13.00;98.80;;;;;;4748532;30;20060;-81
2021/09/23 03:46:42;;;;;;;16.23;9.33;;;13.00;98.90;;;;;;4748389;30;20052;-80
2021/09/23 03:49:09;;;;;;;21.52;10.80;;;13.00;98.90;;;;;;4734137;30;20111;-81
2021/09/23 03:51:34;;;;;;;20.63;8.57;;;13.00;98.90;;;;;;4734195;30;20236;-81
2021/09/23 03:54:01;;;;;;;19.83;10.05;;;13.00;98.90;;;;;;4733793;30;20041;-81
2021/09/23 03:56:27;;;;;;;20.95;11.25;;;12.90;98.90;;;;;;4748788;30;20071;-81
2021/09/23 03:58:53;;;;;;;23.77;10.90;;;12.90;99.10;;;;;;4733611;30;20040;-81
2021/09/23 04:01:18;;;;;;;27.10;11.32;;;12.80;99.20;;;;;;4733754;30;20594;-81
2021/09/23 04:03:45;;;;;;;25.75;10.77;;;12.80;99.30;;;;;;4748349;30;20344;-81
2021/09/23 04:06:10;;;;;;;21.63;11.25;;;12.70;99.30;;;;;;4748341;30;20045;-81
2021/09/23 04:08:36;;;;;;;22.27;11.25;;;12.80;99.40;;;;;;4733324;30;20032;-81
2021/09/23 04:11:07;;;;;;;23.88;11.07;;;12.70;99.40;;;;;;4733995;30;20289;-81
2021/09/23 04:13:33;;;;;;;22.25;11.40;;;12.80;99.40;;;;;;4732479;30;20032;-82
2021/09/23 04:15:58;;;;;;;17.67;10.50;;;12.70;99.30;;;;;;4733482;30;20032;-81
2021/09/23 04:18:24;;;;;;;26.50;12.27;;;12.80;99.50;;;;;;4748966;30;20232;-82
2021/09/23 04:20:50;;;;;;;20.55;11.43;;;12.80;99.10;;;;;;4748126;30;20029;-81
2021/09/23 04:23:16;;;;;;;20.13;12.10;;;12.90;98.90;;;;;;4733146;30;20032;-81
2021/09/23 04:25:42;;;;;;;23.55;11.35;;;12.80;98.90;;;;;;4733288;30;20029;-81
2021/09/23 04:28:09;;;;;;;32.53;14.43;;;12.80;98.80;;;;;;4732842;30;20047;-80
2021/09/23 04:30:34;;;;;;;33.77;13.37;;;12.80;98.70;;;;;;4747828;30;20067;-81
2021/09/23 04:33:00;;;;;;;20.58;12.43;;;12.70;98.70;;;;;;4733029;30;20033;-81
2021/09/23 04:35:26;;;;;;;24.45;12.82;;;12.80;98.80;;;;;;4733238;30;20033;-81
2021/09/23 04:37:52;;;;;;;25.17;13.88;;;12.80;98.80;;;;;;4732859;30;20047;-80
2021/09/23 04:40:18;;;;;;;21.05;12.07;;;12.80;98.90;;;;;;4733007;30;20219;-80
2021/09/23 04:42:44;;;;;;;29.88;13.75;;;12.80;98.90;;;;;;4733078;30;20048;-80
2021/09/23 04:45:12;;;;;;;34.75;15.32;;;12.80;99.00;;;;;;4747617;30;20031;-81
2021/09/23 04:47:44;;;;;;;25.10;12.95;;;12.80;99.10;;;;;;4745317;30;20063;-81
2021/09/23 04:50:10;;;;;;;28.35;14.10;;;12.80;99.60;;;;;;4732671;30;20103;-81
2021/09/23 04:52:36;;;;;;;32.90;13.90;;;12.80;99.40;;;;;;4747216;30;20036;-81
2021/09/23 04:55:05;;;;;;;24.50;12.57;;;12.80;99.60;;;;;;4761302;30;20367;-81
2021/09/23 04:57:33;;;;;;;23.13;11.98;;;12.80;99.50;;;;;;4747167;30;20016;-81
2021/09/23 05:00:03;;;;;;;26.48;12.18;;;12.80;99.50;;;;;;4747114;30;20036;-81
2021/09/23 05:02:32;;;;;;;21.85;12.18;;;12.90;99.50;;;;;;4761434;30;20028;-81
2021/09/23 05:04:58;;;;;;;29.75;11.98;;;13.00;99.20;;;;;;4732511;30;20045;-81
2021/09/23 05:07:25;;;;;;;;;;;13.10;99.00;;;;;;4747441;30;20032;-81
2021/09/23 05:09:51;;;;;;;22.40;11.63;;;13.20;98.90;;;;;;4747041;30;19992;-81
2021/09/23 05:12:19;;;;;;;21.33;12.02;;;13.20;98.60;;;;;;4746944;30;20332;-81
2021/09/23 05:14:45;;;;;;;22.38;11.15;;;13.30;98.60;;;;;;4746723;30;20033;-81
2021/09/23 05:17:11;;;;;;;26.52;12.07;;;13.40;98.40;;;;;;4738628;30;20040;-81
2021/09/23 05:19:36;;;;;;;20.30;10.80;;;13.50;98.30;;;;;;4748051;30;20032;-80
2021/09/23 05:22:02;;;;;;;22.42;10.10;;;13.50;98.10;;;;;;4746806;30;20037;-80
2021/09/23 05:24:28;;;;;;;22.27;10.65;;;13.60;98.00;;;;;;4747595;30;20043;-81
2021/09/23 05:26:54;;;;;;;25.30;12.20;;;13.60;97.60;;;;;;4732151;30;20115;-81
2021/09/23 05:29:19;;;;;;;28.15;11.52;;;13.60;97.80;;;;;;4731955;30;20029;-80
2021/09/23 05:31:45;;;;;;;27.55;11.25;;;13.70;97.60;;;;;;4731597;30;20094;-81
2021/09/23 05:34:11;;;;;;;29.45;11.52;;;13.70;97.90;;;;;;4746131;30;20044;-81
2021/09/23 05:36:38;;;;;;;27.98;11.63;;;13.80;97.40;;;;;;4730763;30;20037;-81
2021/09/23 05:39:04;;;;;;;26.13;10.63;;;13.90;97.40;;;;;;4730959;30;20048;-80
2021/09/23 05:41:31;;;;;;;26.23;10.68;;;14.00;97.20;;;;;;4734731;30;20077;-80
2021/09/23 05:43:58;;;;;;;24.08;10.45;;;14.00;97.40;;;;;;4717269;30;20036;-80
2021/09/23 05:46:26;;;;;;;23.58;10.40;;;14.10;96.90;;;;;;4708780;30;20059;-80
2021/09/23 05:48:52;;;;;;;21.63;11.05;;;14.20;96.90;;;;;;4731630;30;20060;-80
2021/09/23 05:51:18;;;;;;;23.15;10.82;;;14.30;96.60;;;;;;4745746;30;20041;-80
2021/09/23 05:53:45;;;;;;;21.52;10.77;;;14.40;96.70;;;;;;4731383;30;20347;-80
2021/09/23 05:56:11;;;;;;;21.85;10.70;;;14.60;96.40;;;;;;4731356;30;20028;-80
2021/09/23 05:58:36;;;;;;;20.60;10.50;;;14.70;96.40;;;;;;4746301;30;20028;-81
2021/09/23 06:01:02;;;;;;;16.27;9.73;;;14.80;96.40;;;;;;4736150;30;20045;-81
2021/09/23 06:03:28;;;;;;;25.92;11.25;;;14.90;96.20;;;;;;4715913;30;20067;-81
2021/09/23 06:05:54;;;;;;;16.38;9.38;;;15.00;96.10;;;;;;4716495;30;20275;-81
2021/09/23 06:08:20;;;;;;;21.65;11.10;;;15.20;96.20;;;;;;4745511;30;20039;-81
2021/09/23 06:10:45;;;;;;;22.17;11.25;;;15.30;96.00;;;;;;4731214;30;20049;-81
2021/09/23 06:13:11;;;;;;;29.95;12.75;;;15.40;95.60;;;;;;4731446;30;20029;-81
2021/09/23 06:15:37;;;;;;;28.48;12.50;;;15.40;95.60;;;;;;4731280;30;20039;-81
2021/09/23 06:18:03;;;;;;;24.77;11.57;;;15.30;95.00;;;;;;4745574;30;20033;-81
2021/09/23 06:20:29;;;;;;;25.67;13.35;;;15.20;94.90;;;;;;4743222;30;20037;-81
2021/09/23 06:22:55;;;;;;;26.02;12.50;;;15.10;95.10;;;;;;4731173;30;20036;-81
2021/09/23 06:25:22;;;;;;;29.13;12.53;;;15.10;95.20;;;;;;4745278;30;20044;-81
2021/09/23 06:27:47;;;;;;;27.98;13.27;;;15.10;95.10;;;;;;4744059;30;20062;-81
2021/09/23 06:30:14;;;;;;;23.48;11.88;;;15.10;95.20;;;;;;4731181;30;20395;-81
2021/09/23 06:32:40;;;;;;;26.73;11.93;;;15.10;95.00;;;;;;4730849;30;20107;-82
2021/09/23 06:35:07;;;;;;;32.85;11.93;;;15.10;95.10;;;;;;4731294;30;20039;-81
2021/09/23 06:37:35;;;;;;;20.60;11.32;;;15.20;95.00;;;;;;4756739;30;20227;-80
2021/09/23 06:40:02;;;;;;;22.63;11.52;;;15.30;95.00;;;;;;4730982;30;20120;-81
2021/09/23 06:42:28;;;;;;;22.55;12.15;;;15.30;94.80;;;;;;4731023;30;20339;-81
2021/09/23 06:44:53;;;;;;;27.52;11.50;;;15.30;94.70;;;;;;4745705;30;20067;-81
2021/09/23 06:47:19;;;;;;;35.38;11.55;;;15.30;94.70;;;;;;4730479;30;20116;-81
2021/09/23 06:49:47;;;;;;;30.45;12.50;;;15.40;94.70;;;;;;4730607;30;20151;-81
2021/09/23 06:52:13;;;;;;;29.95;12.15;;;15.50;94.50;;;;;;4731023;30;20032;-81
2021/09/23 06:54:39;;;;;;;24.88;11.00;;;15.70;94.30;;;;;;4745616;30;20040;-81
2021/09/23 06:57:05;;;;;;;24.77;11.27;;;15.80;94.20;;;;;;4731285;30;20224;-81
2021/09/23 06:59:39;;;;;;;31.63;11.18;;;15.90;94.00;;;;;;4731857;30;20039;-81
2021/09/23 07:02:05;;;;;;;26.33;9.60;;;16.00;93.80;;;;;;4730852;30;20020;-81
2021/09/23 07:05:04;;;;;;;19.50;6.68;;;16.20;93.20;;;;;;4692480;30;20038;-81
2021/09/23 07:07:40;;;;;;;;;;;16.10;92.10;;;;;;4679327;30;20038;-81
2021/09/23 07:10:06;;;;;;;17.83;7.20;;;16.10;91.50;;;;;;4693086;30;20073;-81
2021/09/23 07:12:33;;;;;;;17.63;6.68;;;16.20;91.30;;;;;;4678390;30;20057;-81
2021/09/23 07:14:58;;;;;;;14.80;7.10;;;16.30;91.60;;;;;;4679695;30;20046;-81
2021/09/23 07:17:25;;;;;;;17.80;6.75;;;16.30;91.10;;;;;;4682007;30;20053;-81
2021/09/23 07:19:50;;;;;;;10.38;6.65;;;16.30;91.00;;;;;;4681789;30;20129;-81
2021/09/23 07:22:17;;;;;;;17.90;7.22;;;16.30;91.20;;;;;;4681154;30;20042;-81
2021/09/23 07:24:43;;;;;;;20.20;7.05;;;16.40;90.80;;;;;;4692400;30;20045;-81
2021/09/23 07:27:09;;;;;;;14.38;6.50;;;16.40;90.60;;;;;;4664700;30;20098;-81
2021/09/23 07:29:35;;;;;;;17.33;6.30;;;16.50;90.80;;;;;;4664114;30;20078;-77
2021/09/23 07:32:01;;;;;;;12.18;6.35;;;16.60;90.80;;;;;;4648902;30;20282;-77
2021/09/23 07:34:27;;;;;;;12.82;5.68;;;16.70;89.70;;;;;;4662874;30;20093;-82
2021/09/23 07:36:54;;;;;;;16.02;5.72;;;16.80;90.30;;;;;;4664266;30;20030;-82
2021/09/23 07:39:20;;;;;;;15.20;6.18;;;17.00;90.40;;;;;;4664619;30;20042;-82
2021/09/23 07:41:47;;;;;;;11.57;5.53;;;17.20;90.00;;;;;;4717328;30;20041;-81
2021/09/23 07:44:14;;;;;;;17.70;6.00;;;17.30;88.80;;;;;;4717531;30;20025;-82
2021/09/23 07:46:42;;;;;;;8.32;5.03;;;17.30;87.90;;;;;;4723791;30;20060;-82
2021/09/23 07:49:08;;;;;;;14.48;5.72;;;17.40;88.10;;;;;;4709150;30;20111;-82
2021/09/23 07:51:34;;;;;;;13.40;5.53;;;17.50;87.60;;;;;;4715158;30;20032;-83
2021/09/23 07:54:01;;;;;;;15.80;6.13;;;17.40;84.80;;;;;;4719758;30;20037;-82
2021/09/23 07:56:27;;;;;;;9.68;5.95;;;17.50;86.70;;;;;;4742540;30;20036;-84
2021/09/23 07:58:53;;;;;;;11.52;5.30;;;17.60;87.20;;;;;;4719188;30;20067;-84
2021/09/23 08:01:18;;;;;;;14.07;6.40;;;17.70;86.70;;;;;;4719962;30;20055;-84
2021/09/23 08:03:50;;;;;;;12.02;4.85;;;17.90;86.50;;;;;;4747852;30;20044;-80
2021/09/23 08:06:17;;;;;;;10.45;4.88;;;18.10;85.40;;;;;;4719944;30;20052;-82
2021/09/23 08:08:43;;;;;;;;;;;18.10;82.70;;;;;;4735068;30;20108;-84
2021/09/23 08:11:10;;;;;;;9.32;4.65;;;18.10;83.70;;;;;;4733851;30;19917;-86
2021/09/23 08:13:38;;;;;;;15.80;5.60;;;18.40;83.40;;;;;;4733968;30;20115;-85
2021/09/23 08:16:04;;;;;;;14.70;4.70;;;18.60;81.00;;;;;;4734017;30;20039;-82
2021/09/23 08:18:48;;;;;;;12.88;4.78;;;18.70;79.60;;;;;;4749034;30;20070;-82
2021/09/23 08:21:32;;;;;;;14.02;4.07;;;18.70;79.80;;;;;;4749326;30;20039;-82
2021/09/23 08:23:58;;;;;;;13.40;4.97;;;18.80;79.80;;;;;;4748015;30;20336;-81
2021/09/23 08:26:24;;;;;;;12.23;3.83;;;19.00;79.90;;;;;;4746951;30;20078;-81
2021/09/23 08:28:54;;;;;;;11.67;4.20;;;19.20;77.80;;;;;;4748317;30;20324;-81
2021/09/23 08:31:21;;;;;;;11.48;4.35;;;19.30;77.00;;;;;;4732365;30;20278;-81
2021/09/23 08:33:50;;;;;;;15.65;4.18;;;19.50;77.70;;;;;;4745705;30;20100;-81
2021/09/23 08:36:17;;;;;;;19.88;5.20;;;19.80;77.20;;;;;;4736744;30;20032;-81
2021/09/23 08:38:45;;;;;;;14.38;4.13;;;20.00;75.10;;;;;;4732648;30;20056;-81
2021/09/23 08:41:13;;;;;;;15.57;4.35;;;20.10;74.60;;;;;;4732655;30;20035;-81
2021/09/23 08:43:39;;;;;;;10.10;3.42;;;20.30;73.50;;;;;;4732188;30;20044;-81
2021/09/23 08:46:05;;;;;;;10.55;4.07;;;20.40;73.90;;;;;;4731851;30;20394;-81
2021/09/23 08:48:33;;;;;;;16.45;4.53;;;20.50;73.20;;;;;;4732439;30;20040;-81
2021/09/23 08:51:00;;;;;;;9.80;3.55;;;20.60;71.00;;;;;;4746714;30;20032;-81
2021/09/23 08:53:28;;;;;;;15.25;4.05;;;20.60;71.60;;;;;;4732175;30;20106;-81
2021/09/23 08:55:56;;;;;;;11.77;3.95;;;20.50;71.70;;;;;;4731656;30;20347;-82
2021/09/23 08:58:24;;;;;;;9.25;3.58;;;20.50;70.40;;;;;;4732214;30;20028;-82
2021/09/23 09:01:09;;;;;;;13.07;4.10;;;20.70;70.50;;;;;;4732359;30;20032;-82
2021/09/23 09:04:02;;;;;;;11.23;3.13;;;20.90;69.90;;;;;;4734518;30;20048;-81
2021/09/23 09:06:53;;;;;;;11.47;4.33;;;20.80;70.70;;;;;;4748215;30;20087;-81
2021/09/23 09:09:44;;;;;;;10.68;3.45;;;21.00;69.20;;;;;;4689448;30;20137;-81
2021/09/23 09:12:14;;;;;;;11.68;3.60;;;21.10;71.00;;;;;;4677971;30;20258;-82
2021/09/23 09:14:42;;;;;;;13.68;3.85;;;21.20;67.60;;;;;;4678213;30;20123;-81
2021/09/23 09:17:08;;;;;;;12.27;3.75;;;21.10;67.10;;;;;;4669213;30;20109;-81
2021/09/23 09:19:59;;;;;;;12.07;3.20;;;21.00;67.30;;;;;;4662899;30;20069;-81
2021/09/23 09:22:28;;;;;;;9.40;3.70;;;21.20;66.10;;;;;;4673925;30;20035;-81
2021/09/23 09:24:59;;;;;;;7.28;3.20;;;21.20;66.10;;;;;;4656143;30;20334;-82
2021/09/23 09:27:26;;;;;;;7.03;3.10;;;21.20;67.80;;;;;;4658957;30;20046;-77
2021/09/23 09:29:58;;;;;;;15.15;4.10;;;21.20;67.60;;;;;;4668420;30;20041;-78
2021/09/23 09:32:38;;;;;;;14.43;3.85;;;21.30;67.50;;;;;;4630408;30;20038;-78
2021/09/23 09:35:05;;;;;;;11.27;3.40;;;21.40;68.00;;;;;;4659604;30;20034;-82
2021/09/23 09:37:32;;;;;;;14.98;3.47;;;21.40;65.00;;;;;;4659006;30;20035;-83
2021/09/23 09:40:00;;;;;;;11.55;3.60;;;21.60;66.20;;;;;;4652340;30;20047;-83
2021/09/23 09:42:29;;;;;;;13.93;3.67;;;21.70;66.30;;;;;;4661936;30;20046;-83
2021/09/23 09:44:59;;;;;;;9.90;3.90;;;21.90;64.50;;;;;;4662322;30;20038;-82
2021/09/23 09:47:33;;;;;;;10.38;3.20;;;22.20;67.30;;;;;;4717226;30;20135;-83
2021/09/23 09:50:11;;;;;;;16.85;4.13;;;22.50;65.50;;;;;;4731938;30;20040;-84
2021/09/23 09:52:36;;;;;;;7.38;3.08;;;22.60;62.50;;;;;;4716876;30;20033;-83
2021/09/23 09:55:10;;;;;;;8.67;3.40;;;22.50;63.30;;;;;;4714911;30;20037;-84
2021/09/23 09:57:46;;;;;;;12.30;3.80;;;22.70;64.00;;;;;;4743345;30;20028;-84
2021/09/23 10:00:15;;;;;;;8.35;2.70;;;22.80;61.90;;;;;;4745008;30;20035;-83
2021/09/23 10:02:43;;;;;;;7.95;3.13;;;22.90;62.50;;;;;;4735823;30;20035;-83
2021/09/23 10:05:13;;;;;;;14.68;3.30;;;23.20;60.80;;;;;;4747275;30;20062;-82
2021/09/23 10:07:44;;;;;;;10.00;3.40;;;23.10;59.40;;;;;;4732613;30;20032;-79
2021/09/23 10:10:11;;;;;;;9.45;3.75;;;23.00;59.80;;;;;;4745564;30;20104;-84
2021/09/23 10:12:41;;;;;;;9.85;3.33;;;23.20;59.60;;;;;;4745673;30;20033;-83
2021/09/23 10:15:14;;;;;;;9.82;2.92;;;23.30;59.50;;;;;;4745767;30;20040;-84
2021/09/23 10:17:42;;;;;;;9.43;3.90;;;23.30;59.10;;;;;;4733125;30;20051;-84
2021/09/23 10:20:09;;;;;;;8.80;3.42;;;22.80;59.00;;;;;;4714043;30;20448;-83
2021/09/23 10:22:36;;;;;;;7.95;3.17;;;22.70;59.50;;;;;;4713534;30;20036;-84
2021/09/23 10:25:05;;;;;;;8.35;2.85;;;22.60;59.10;;;;;;4713468;30;20108;-84
2021/09/23 10:30:18;;;;;;;6.70;3.03;;;23.00;60.00;;;;;;4728096;30;20043;-84
2021/09/23 10:32:45;;;;;;;11.18;3.30;;;22.90;59.70;;;;;;4713386;30;20044;-84
2021/09/23 10:35:22;;;;;;;8.02;3.08;;;23.00;59.10;;;;;;4727964;30;20029;-84
2021/09/23 10:38:02;;;;;;;10.50;2.83;;;23.10;58.00;;;;;;4713166;30;20533;-84
2021/09/23 10:40:30;;;;;;;10.02;3.17;;;23.40;58.80;;;;;;4727865;30;20091;-84
2021/09/23 10:43:01;;;;;;;12.43;3.10;;;23.40;56.90;;;;;;4713420;30;20029;-84
2021/09/23 10:45:28;;;;;;;11.65;3.80;;;23.30;56.90;;;;;;4727934;30;20052;-84
2021/09/23 10:47:58;;;;;;;10.75;3.90;;;23.30;58.90;;;;;;4740202;30;20068;-84
2021/09/23 10:50:30;;;;;;;7.20;3.15;;;23.40;55.20;;;;;;4727187;30;20037;-83
2021/09/23 10:53:04;;;;;;;9.50;2.83;;;23.40;55.30;;;;;;4726872;30;20233;-83
2021/09/23 10:55:34;;;;;;;5.97;2.78;;;23.20;55.30;;;;;;4742170;30;20041;-83
2021/09/23 10:58:00;;;;;;;8.95;3.63;;;23.30;56.50;;;;;;4727304;30;20036;-84
2021/09/23 11:00:30;;;;;;;8.67;2.83;;;23.40;55.80;;;;;;4727173;30;20079;-84
2021/09/23 11:02:56;;;;;;;7.05;2.45;;;23.50;56.20;;;;;;4741398;30;20341;-84
2021/09/23 11:05:23;;;;;;;8.27;2.78;;;23.50;56.10;;;;;;4742200;30;20116;-84
2021/09/23 11:07:51;;;;;;;4.60;2.35;;;23.40;55.90;;;;;;4729840;30;20047;-83
2021/09/23 11:10:18;;;;;;;9.38;2.83;;;23.40;56.00;;;;;;4729093;30;20028;-83
2021/09/23 11:12:48;;;;;;;8.30;3.50;;;23.60;56.00;;;;;;4744913;30;20041;-84
2021/09/23 11:15:18;;;;;;;9.38;3.25;;;23.70;53.70;;;;;;4729863;30;20111;-83
2021/09/23 11:17:45;;;;;;;8.77;3.25;;;23.80;53.40;;;;;;4732142;30;20273;-83
2021/09/23 11:20:20;;;;;;;8.80;3.35;;;23.80;54.60;;;;;;4730024;30;20339;-83
2021/09/23 11:22:55;;;;;;;8.70;3.08;;;24.00;54.10;;;;;;4727880;30;20037;-83
2021/09/23 11:25:30;;;;;;;4.70;2.80;;;24.20;53.00;;;;;;4730477;30;20104;-83
2021/09/23 11:27:57;;;;;;;9.25;3.30;;;24.20;53.20;;;;;;4741664;30;20060;-83
2021/09/23 11:30:26;;;;;;;4.85;2.70;;;24.10;52.90;;;;;;4727069;30;20033;-83
2021/09/23 11:32:55;;;;;;;9.27;2.70;;;24.20;52.70;;;;;;4712840;30;20132;-83
2021/09/23 11:35:25;;;;;;;8.75;2.50;;;24.50;50.80;;;;;;4713076;30;20037;-83
2021/09/23 11:37:52;;;;;;;7.70;2.58;;;24.60;52.60;;;;;;4727325;30;20029;-83
2021/09/23 11:40:27;;;;;;;8.15;2.38;;;24.80;52.50;;;;;;4726949;30;20197;-83
2021/09/23 11:42:53;;;;;;;7.47;3.53;;;25.00;51.70;;;;;;4727122;30;20037;-82
2021/09/23 11:45:25;;;;;;;7.18;2.95;;;25.20;52.00;;;;;;4726883;30;20039;-83
2021/09/23 11:47:54;;;;;;;8.52;3.10;;;25.40;50.90;;;;;;4731235;30;20205;-83
2021/09/23 11:50:30;;;;;;;5.13;2.97;;;25.60;52.80;;;;;;4744528;30;20037;-82
2021/09/23 11:53:09;;;;;;;4.75;2.63;;;25.80;51.10;;;;;;4730827;30;20046;-83
2021/09/23 11:55:52;;;;;;;7.47;3.13;;;25.60;48.90;;;;;;4730167;30;20036;-83
2021/09/23 11:58:19;;;;;;;8.48;3.13;;;25.20;49.50;;;;;;4730554;30;20056;-82
2021/09/23 12:00:47;;;;;;;8.82;3.67;;;25.10;50.30;;;;;;4714791;30;20101;-83
2021/09/23 12:03:16;;;;;;;11.98;3.20;;;24.80;49.20;;;;;;4732747;30;20028;-83
2021/09/23 12:05:44;;;;;;;7.97;2.90;;;24.80;50.80;;;;;;4733543;30;20033;-82
2021/09/23 12:08:16;;;;;;;6.47;3.05;;;24.80;52.00;;;;;;4733625;30;20096;-82
2021/09/23 12:10:57;;;;;;;33.55;10.70;;;24.90;50.40;;;;;;4754792;30;20046;-82
2021/09/23 12:13:45;;;;;;;11.68;4.15;;;24.90;49.50;;;;;;4754577;30;20033;-83
2021/09/23 12:16:19;;;;;;;6.00;3.30;;;25.00;50.60;;;;;;4747981;30;20112;-83
2021/09/23 12:18:47;;;;;;;5.85;3.30;;;25.10;50.50;;;;;;4744119;30;20029;-81
2021/09/23 12:21:21;;;;;;;6.35;2.72;;;25.20;51.30;;;;;;4747670;30;20021;-81
2021/09/23 12:23:57;;;;;;;6.57;2.55;;;25.40;50.80;;;;;;4733044;30;20032;-83
2021/09/23 12:26:32;;;;;;;4.32;2.20;;;25.60;48.50;;;;;;4747747;30;20036;-82
2021/09/23 12:29:19;;;;;;;8.57;3.17;;;25.80;50.50;;;;;;4734463;30;20033;-83
2021/09/23 12:32:03;;;;;;;8.27;2.83;;;25.80;48.50;;;;;;4733183;30;20032;-83
2021/09/23 12:34:28;;;;;;;4.20;2.90;;;25.80;48.00;;;;;;4733313;30;20044;-83
2021/09/23 12:36:59;;;;;;;;;;;25.70;47.40;;;;;;4733581;30;20036;-83
2021/09/23 12:39:47;;;;;;;7.32;2.60;;;25.80;49.90;;;;;;4747541;30;19903;-83
2021/09/23 12:42:17;;;;;;;4.28;2.92;;;26.10;49.30;;;;;;4747640;30;20032;-83
2021/09/23 12:44:59;;;;;;;4.95;2.97;;;26.30;49.00;;;;;;4733081;30;20037;-83
2021/09/23 12:47:30;;;;;;;4.85;2.50;;;26.30;46.50;;;;;;4740649;30;20063;-82
2021/09/23 12:50:10;;;;;;;5.88;2.70;;;25.90;47.10;;;;;;4748595;30;20056;-82
2021/09/23 12:52:41;;;;;;;5.93;2.72;;;25.80;47.30;;;;;;4748438;30;20040;-82
2021/09/23 12:55:11;;;;;;;5.53;3.20;;;25.40;46.90;;;;;;4747923;30;20036;-82
2021/09/23 12:57:49;;;;;;;;;;;25.30;48.10;;;;;;4733985;30;20029;-82
2021/09/23 13:00:26;;;;;;;7.53;2.60;;;25.30;48.00;;;;;;4747719;30;20198;-82
2021/09/23 13:03:07;;;;;;;6.60;2.58;;;25.30;48.30;;;;;;4730155;30;20079;-82
2021/09/23 13:05:37;;;;;;;5.03;3.05;;;25.20;50.20;;;;;;4714693;30;20213;-82
2021/09/23 13:08:21;;;;;;;5.55;2.80;;;25.00;48.20;;;;;;4737740;30;20167;-82
2021/09/23 13:10:50;;;;;;;5.50;2.78;;;25.00;49.30;;;;;;4743575;30;20037;-82
2021/09/23 13:13:26;;;;;;;7.50;3.35;;;24.90;50.30;;;;;;4743797;30;20043;-82
2021/09/23 13:15:59;;;;;;;4.88;3.20;;;24.60;49.20;;;;;;4745752;30;20036;-82
2021/09/23 13:18:28;;;;;;;13.77;3.33;;;24.60;50.20;;;;;;4732272;30;20051;-82
2021/09/23 13:21:07;;;;;;;5.93;3.00;;;24.80;49.00;;;;;;4733372;30;20497;-82
2021/09/23 13:23:44;;;;;;;5.72;3.30;;;24.90;49.10;;;;;;4732240;30;20041;-83
2021/09/23 13:26:15;;;;;;;4.65;3.03;;;25.10;49.30;;;;;;4729828;30;20033;-82
2021/09/23 13:28:48;;;;;;;5.03;3.58;;;25.30;47.50;;;;;;4728456;30;20112;-82
2021/09/23 13:31:22;;;;;;;9.23;3.80;;;25.30;48.10;;;;;;4719020;30;20025;-82
2021/09/23 13:33:52;;;;;;;9.90;3.63;;;25.40;51.10;;;;;;4731574;30;20070;-82
2021/09/23 13:36:18;;;;;;;7.10;3.90;;;25.50;51.50;;;;;;4732547;30;20033;-82
2021/09/23 13:38:45;;;;;;;8.85;3.15;;;25.50;51.20;;;;;;4731518;30;20104;-81
2021/09/23 13:41:25;;;;;;;8.13;3.42;;;25.60;51.30;;;;;;4731712;30;20033;-82
2021/09/23 13:43:52;;;;;;;11.18;3.55;;;25.60;51.10;;;;;;4717417;30;20043;-82
2021/09/23 13:46:28;;;;;;;8.80;3.38;;;25.50;50.90;;;;;;4748736;30;20096;-82
2021/09/23 13:48:55;;;;;;;;;;;25.40;51.40;;;;;;4764581;30;20074;-83
2021/09/23 13:51:22;;;;;;;5.78;3.97;;;25.40;51.50;;;;;;4749551;30;19910;-81
2021/09/23 13:53:48;;;;;;;5.28;3.35;;;25.40;51.00;;;;;;4749182;30;20036;-81
2021/09/23 13:56:14;;;;;;;7.93;3.33;;;25.40;50.50;;;;;;4748851;30;20111;-82
2021/09/23 13:58:41;;;;;;;11.32;3.30;;;25.40;51.50;;;;;;4749305;30;20032;-82
2021/09/23 14:01:07;;;;;;;6.25;2.95;;;25.40;51.30;;;;;;4746891;30;20037;-81
2021/09/23 14:03:33;;;;;;;12.85;4.50;;;25.30;51.20;;;;;;4741428;30;20354;-81
2021/09/23 14:06:05;;;;;;;10.90;3.30;;;25.20;50.80;;;;;;4746366;30;20020;-81
2021/09/23 14:08:33;;;;;;;10.40;2.97;;;25.10;51.00;;;;;;4731496;30;20040;-81
2021/09/23 14:11:06;;;;;;;10.43;3.53;;;25.00;51.80;;;;;;4737897;30;20028;-82
2021/09/23 14:13:52;;;;;;;8.82;3.75;;;25.00;51.60;;;;;;4734044;30;20044;-81
2021/09/23 14:16:18;;;;;;;8.00;3.60;;;25.10;51.70;;;;;;4715781;30;20040;-82
2021/09/23 14:18:44;;;;;;;9.20;3.70;;;25.00;52.10;;;;;;4738416;30;20032;-82
2021/09/23 14:21:11;;;;;;;8.80;3.10;;;25.00;53.30;;;;;;4731482;30;20082;-82
2021/09/23 14:23:39;;;;;;;10.57;3.80;;;25.00;52.50;;;;;;4731465;30;20036;-83
2021/09/23 14:26:10;;;;;;;12.60;3.40;;;25.00;52.10;;;;;;4731205;30;20099;-81
2021/09/23 14:28:36;;;;;;;9.82;3.70;;;25.10;52.10;;;;;;4731096;30;20075;-82
2021/09/23 14:31:03;;;;;;;6.78;3.35;;;25.20;52.30;;;;;;4746017;30;20053;-82
2021/09/23 14:33:33;;;;;;;7.47;3.30;;;25.30;52.00;;;;;;4731045;30;20033;-82
2021/09/23 14:35:59;;;;;;;9.43;3.27;;;25.30;51.80;;;;;;4745419;30;20082;-82
2021/09/23 14:38:25;;;;;;;10.02;3.88;;;25.30;51.80;;;;;;4730224;30;20052;-82
2021/09/23 14:40:51;;;;;;;8.07;3.67;;;25.20;51.90;;;;;;4731029;30;20089;-82
2021/09/23 14:43:17;;;;;;;6.57;3.28;;;25.20;52.80;;;;;;4715581;30;20044;-82
2021/09/23 14:45:43;;;;;;;13.05;4.50;;;25.20;52.90;;;;;;4731156;30;20248;-82
2021/09/23 14:48:09;;;;;;;11.10;3.80;;;25.20;53.20;;;;;;4731652;30;20099;-82
2021/09/23 14:50:36;;;;;;;5.60;3.72;;;25.00;53.70;;;;;;4731330;30;20078;-82
2021/09/23 14:53:02;;;;;;;;;;;24.90;53.80;;;;;;4746179;30;20048;-82
2021/09/23 14:55:28;;;;;;;9.77;3.72;;;24.70;54.30;;;;;;4746150;30;20172;-82
2021/09/23 14:57:54;;;;;;;8.52;3.75;;;24.70;54.70;;;;;;4745972;30;20032;-82
2021/09/23 15:00:20;;;;;;;10.00;3.67;;;24.70;54.80;;;;;;4745683;30;20040;-82
2021/09/23 15:02:46;;;;;;;8.50;4.10;;;24.60;55.30;;;;;;4745512;30;20279;-82
2021/09/23 15:05:14;;;;;;;9.00;3.35;;;24.70;55.00;;;;;;4731103;30;20040;-82
2021/09/23 15:07:40;;;;;;;10.52;3.85;;;24.60;56.00;;;;;;4731271;30;20041;-82
2021/09/23 15:10:08;;;;;;;20.95;4.90;;;24.50;56.30;;;;;;4724844;30;20336;-82
2021/09/23 15:12:35;;;;;;;9.30;3.47;;;24.50;56.30;;;;;;4745697;30;20044;-83
2021/09/23 15:15:01;;;;;;;13.57;3.97;;;24.30;56.20;;;;;;4730903;30;20236;-82
2021/09/23 15:17:27;;;;;;;10.82;3.83;;;24.20;53.80;;;;;;4733876;30;20047;-82
2021/09/23 15:19:56;;;;;;;6.63;3.70;;;24.10;55.00;;;;;;4730151;30;20075;-82
2021/09/23 15:22:24;;;;;;;7.88;3.78;;;24.10;55.00;;;;;;4737854;30;20029;-83
2021/09/23 15:24:50;;;;;;;8.75;3.83;;;24.10;54.60;;;;;;4713853;30;20037;-82
2021/09/23 15:27:17;;;;;;;10.15;4.80;;;24.00;55.80;;;;;;4742079;30;20140;-82
2021/09/23 15:29:44;;;;;;;;;;;23.90;57.20;;;;;;4731169;30;20067;-82
2021/09/23 15:32:10;;;;;;;10.05;4.10;;;23.70;58.80;;;;;;4746218;30;19907;-82
2021/09/23 15:34:36;;;;;;;11.23;4.28;;;23.60;59.50;;;;;;4745226;30;20040;-82
2021/09/23 15:37:02;;;;;;;13.63;4.15;;;23.40;60.20;;;;;;4736394;30;20040;-83